Weather at Nancy-Ochey (BA 133) Air Base

Public forecast

Using degrees Celsius for public forecast. Weather courtesy of forecast.io.

Current aviation weather report (METAR) for Nancy-Ochey (BA 133) Air Base

Retrieved 2021/10/18 16:30 UTC (18 minutes ago):

LFSO 181630Z AUTO 16005KT CAVOK 14/09 Q1023

Aviation forecast (TAF) for Nancy-Ochey (BA 133) Air Base

Retrieved 2021/10/18 15:27 UTC (1 hour ago):

TAF LFSO 181518Z 1815/1915 CNL